createdAt,value
2023-02-13T00:02:05.580Z,102622.94
2023-02-13T00:04:32.495Z,102615.81
2023-02-13T00:06:59.326Z,102620.38
2023-02-13T00:09:26.218Z,102620.38
2023-02-13T00:11:53.101Z,102625.81
2023-02-13T00:14:19.974Z,102632.03
2023-02-13T00:16:46.888Z,102636.03
2023-02-13T00:19:13.821Z,102635.81
2023-02-13T00:21:40.725Z,102632.94
2023-02-13T00:24:07.730Z,102624.38
2023-02-13T00:26:34.584Z,102636.50
2023-02-13T00:29:01.526Z,102635.84
2023-02-13T00:31:28.480Z,102644.69
2023-02-13T00:33:55.360Z,102634.03
2023-02-13T00:36:23.354Z,102639.97
2023-02-13T00:38:51.402Z,102645.06
2023-02-13T00:41:20.244Z,102655.28
2023-02-13T00:43:47.855Z,102662.41
2023-02-13T00:46:15.674Z,102653.34
2023-02-13T00:48:42.881Z,102651.69
2023-02-13T00:51:09.975Z,102647.34
2023-02-13T00:53:37.804Z,102654.31
2023-02-13T00:56:06.297Z,102651.44
2023-02-13T00:58:33.965Z,102650.34
2023-02-13T01:01:01.058Z,102651.75
2023-02-13T01:03:28.018Z,102655.72
2023-02-13T01:05:57.094Z,102650.22
2023-02-13T01:08:28.350Z,102648.28
2023-02-13T01:10:56.326Z,102641.63
2023-02-13T01:13:23.524Z,102648.56
2023-02-13T01:15:51.528Z,102648.72
2023-02-13T01:18:20.393Z,102642.91
2023-02-13T01:21:06.103Z,102648.00
2023-02-13T01:23:34.920Z,102649.69
2023-02-13T01:26:04.786Z,102643.25
2023-02-13T01:28:32.446Z,102639.00
2023-02-13T01:31:00.356Z,102642.53
2023-02-13T01:33:29.547Z,102639.25
2023-02-13T01:35:56.550Z,102644.31
2023-02-13T01:38:23.549Z,102643.56
2023-02-13T01:40:53.200Z,102644.59
2023-02-13T01:43:24.321Z,102646.13
2023-02-13T01:45:56.394Z,102644.88
2023-02-13T01:48:27.374Z,102646.28
2023-02-13T01:51:02.980Z,102646.06
2023-02-13T01:53:56.649Z,102648.66
2023-02-13T01:56:41.095Z,102649.13
2023-02-13T01:59:33.741Z,102651.81
2023-02-13T02:02:01.536Z,102648.09
2023-02-13T02:04:36.233Z,102653.22
2023-02-13T02:07:41.113Z,102654.53
2023-02-13T02:10:16.860Z,102656.91
2023-02-13T02:12:51.173Z,102655.50
2023-02-13T02:15:20.282Z,102656.31
2023-02-13T02:17:47.564Z,102656.91
2023-02-13T02:20:23.345Z,102667.88
2023-02-13T02:23:17.288Z,102662.19
2023-02-13T02:26:06.561Z,102668.44
2023-02-13T02:28:47.090Z,102672.19
2023-02-13T02:31:46.891Z,102664.00
2023-02-13T02:34:38.988Z,102662.31
2023-02-13T02:37:09.064Z,102667.66
2023-02-13T02:39:57.140Z,102663.72
2023-02-13T02:42:24.073Z,102669.78
2023-02-13T02:45:05.665Z,102677.06
2023-02-13T02:48:07.318Z,102673.69
2023-02-13T02:50:46.353Z,102673.16
2023-02-13T02:53:26.859Z,102678.38
2023-02-13T02:56:29.931Z,102676.31
2023-02-13T02:59:22.587Z,102675.22
2023-02-13T03:02:10.261Z,102689.56
2023-02-13T03:05:09.712Z,102692.63
2023-02-13T03:07:36.647Z,102691.91
2023-02-13T03:10:25.968Z,102696.00
2023-02-13T03:28:46.194Z,102679.72
2023-02-13T03:31:50.411Z,102682.50
2023-02-13T03:34:23.731Z,102683.94
2023-02-13T03:37:19.778Z,102675.94
2023-02-13T03:39:46.588Z,102679.94
2023-02-13T03:42:29.087Z,102683.31
2023-02-13T03:45:31.836Z,102687.50
2023-02-13T03:48:01.552Z,102685.44
2023-02-13T03:50:29.412Z,102686.94
2023-02-13T03:53:03.221Z,102687.03
2023-02-13T03:55:59.726Z,102686.56
2023-02-13T03:58:50.572Z,102690.63
2023-02-13T04:01:22.354Z,102695.94
2023-02-13T04:03:57.046Z,102689.19
2023-02-13T04:06:32.975Z,102676.63
2023-02-13T04:08:59.906Z,102683.94
2023-02-13T04:12:01.529Z,102687.44
2023-02-13T04:14:38.733Z,102688.75
2023-02-13T04:17:31.418Z,102685.41
2023-02-13T04:19:58.361Z,102690.53
2023-02-13T04:22:25.248Z,102700.03
2023-02-13T04:24:52.139Z,102693.53
2023-02-13T04:29:45.972Z,102685.81
2023-02-13T04:32:14.262Z,102686.81
2023-02-13T04:34:41.080Z,102692.31
2023-02-13T04:37:08.066Z,102698.31
2023-02-13T04:39:35.446Z,102690.75
2023-02-13T04:42:02.323Z,102684.56
2023-02-13T04:44:29.205Z,102681.09
2023-02-13T04:46:56.050Z,102684.28
2023-02-13T04:49:22.958Z,102681.13
2023-02-13T04:51:49.765Z,102680.69
2023-02-13T04:54:16.566Z,102670.47
2023-02-13T04:56:43.466Z,102672.63
2023-02-13T04:59:10.289Z,102680.31
2023-02-13T05:01:37.218Z,102687.66
2023-02-13T05:04:04.308Z,102684.03
2023-02-13T05:06:31.191Z,102688.19
2023-02-13T05:08:58.047Z,102683.47
2023-02-13T05:11:24.933Z,102693.06
2023-02-13T05:13:51.742Z,102703.25
2023-02-13T05:16:18.652Z,102707.34
2023-02-13T05:18:45.482Z,102708.34
2023-02-13T05:21:38.455Z,102712.38
2023-02-13T05:24:05.647Z,102710.53
2023-02-13T05:26:32.736Z,102719.44
2023-02-13T05:29:18.265Z,102712.06
2023-02-13T05:31:49.991Z,102716.00
2023-02-13T05:34:17.099Z,102718.25
2023-02-13T05:36:43.999Z,102712.66
2023-02-13T05:39:10.916Z,102715.28
2023-02-13T05:41:37.773Z,102719.56
2023-02-13T05:44:05.067Z,102720.22
2023-02-13T05:46:31.937Z,102716.66
2023-02-13T05:48:59.042Z,102726.63
2023-02-13T05:51:25.973Z,102734.88
2023-02-13T05:53:52.897Z,102732.25
2023-02-13T05:56:19.805Z,102727.22
2023-02-13T05:58:46.676Z,102728.38
2023-02-13T06:01:13.868Z,102735.22
2023-02-13T06:03:40.709Z,102730.19
2023-02-13T06:06:07.814Z,102727.28
2023-02-13T06:08:34.807Z,102745.78
2023-02-13T06:11:02.199Z,102745.75
2023-02-13T06:13:29.390Z,102742.06
2023-02-13T06:15:56.787Z,102742.09
2023-02-13T06:18:23.774Z,102739.59
2023-02-13T06:20:50.694Z,102734.72
2023-02-13T06:23:17.913Z,102739.13
2023-02-13T06:25:44.745Z,102737.06
2023-02-13T06:28:11.617Z,102738.47
2023-02-13T06:30:38.504Z,102741.06
2023-02-13T06:33:05.409Z,102746.78
2023-02-13T06:35:32.265Z,102746.75
2023-02-13T06:37:59.119Z,102740.22
2023-02-13T06:40:26.096Z,102744.66
2023-02-13T06:42:53.081Z,102750.00
2023-02-13T06:45:19.970Z,102739.09
2023-02-13T06:47:48.582Z,102741.25
2023-02-13T06:50:16.837Z,102748.59
2023-02-13T06:52:51.399Z,102751.06
2023-02-13T06:55:19.094Z,102752.44
2023-02-13T06:57:46.892Z,102749.25
2023-02-13T07:00:16.115Z,102751.03
2023-02-13T07:02:44.338Z,102747.47
2023-02-13T07:05:11.906Z,102752.63
2023-02-13T07:07:40.719Z,102757.75
2023-02-13T07:10:10.648Z,102750.00
2023-02-13T07:12:37.735Z,102748.09
2023-02-13T07:15:05.851Z,102737.50
2023-02-13T07:17:34.042Z,102748.97
2023-02-13T07:20:00.977Z,102748.81
2023-02-13T07:22:27.920Z,102750.50
2023-02-13T07:24:54.870Z,102745.81
2023-02-13T07:27:21.738Z,102747.44
2023-02-13T07:29:48.649Z,102745.38
2023-02-13T07:32:15.598Z,102735.63
2023-02-13T07:34:55.816Z,102738.50
2023-02-13T07:37:29.331Z,102746.28
2023-02-13T07:39:56.159Z,102742.34
2023-02-13T07:42:23.169Z,102745.31
2023-02-13T07:44:50.174Z,102741.72
2023-02-13T07:47:19.027Z,102728.88
2023-02-13T07:49:47.114Z,102725.13
2023-02-13T07:52:14.053Z,102732.63
2023-02-13T07:54:47.712Z,102720.34
2023-02-13T07:57:15.513Z,102720.25
2023-02-13T07:59:42.346Z,102712.72
2023-02-13T08:02:18.258Z,102712.22
2023-02-13T08:04:47.848Z,102710.03
2023-02-13T08:07:16.693Z,102716.38
2023-02-13T08:10:05.823Z,102719.41
2023-02-13T08:12:35.821Z,102715.19
2023-02-13T08:15:03.213Z,102720.59
2023-02-13T08:17:30.072Z,102715.25
2023-02-13T08:19:57.039Z,102720.94
2023-02-13T08:22:24.091Z,102715.03
2023-02-13T08:24:50.922Z,102718.75
2023-02-13T08:27:17.792Z,102722.97
2023-02-13T08:29:44.687Z,102726.59
2023-02-13T08:32:11.643Z,102719.16
2023-02-13T08:34:38.611Z,102722.88
2023-02-13T08:37:05.406Z,102717.03
2023-02-13T08:39:32.338Z,102718.56
2023-02-13T08:41:59.238Z,102718.91
2023-02-13T08:44:26.177Z,102709.84
2023-02-13T08:46:53.160Z,102717.75
2023-02-13T08:49:20.293Z,102715.25
2023-02-13T08:51:47.157Z,102712.00
2023-02-13T08:54:13.974Z,102705.13
2023-02-13T08:56:41.721Z,102712.13
2023-02-13T08:59:08.798Z,102712.50
2023-02-13T09:01:35.726Z,102710.72
2023-02-13T09:04:02.623Z,102710.47
2023-02-13T09:06:29.668Z,102708.56
2023-02-13T09:08:56.692Z,102703.41
2023-02-13T09:11:23.660Z,102702.47
2023-02-13T09:13:54.645Z,102698.72
2023-02-13T09:16:22.249Z,102699.28
2023-02-13T09:18:52.659Z,102696.28
2023-02-13T09:21:22.797Z,102699.75
2023-02-13T09:23:51.103Z,102694.56
2023-02-13T09:26:20.796Z,102691.97
2023-02-13T09:28:48.109Z,102689.22
2023-02-13T09:31:17.968Z,102682.53
2023-02-13T09:33:47.082Z,102677.13
2023-02-13T09:36:20.203Z,102677.44
2023-02-13T09:38:57.865Z,102665.66
2023-02-13T09:41:43.177Z,102661.34
2023-02-13T09:44:39.202Z,102656.63
2023-02-13T09:47:24.338Z,102650.94
2023-02-13T09:49:57.231Z,102647.81
2023-02-13T09:52:26.534Z,102649.47
2023-02-13T09:54:53.448Z,102640.06
2023-02-13T09:57:42.606Z,102636.59
2023-02-13T10:00:20.192Z,102627.69
2023-02-13T10:02:59.383Z,102626.84
2023-02-13T10:05:57.468Z,102625.50
2023-02-13T10:08:38.810Z,102621.84
2023-02-13T10:11:26.125Z,102618.88
2023-02-13T10:14:09.547Z,102604.44
2023-02-13T10:17:05.542Z,102603.91
2023-02-13T10:19:55.455Z,102603.13
2023-02-13T10:22:32.019Z,102606.34
2023-02-13T10:25:08.495Z,102601.72
2023-02-13T10:27:40.181Z,102610.75
2023-02-13T10:30:29.245Z,102599.41
2023-02-13T10:33:20.328Z,102596.34
2023-02-13T10:36:10.243Z,102599.72
2023-02-13T10:38:44.745Z,102597.16
2023-02-13T10:41:30.303Z,102590.47
2023-02-13T10:44:10.994Z,102587.28
2023-02-13T10:46:40.887Z,102590.38
2023-02-13T10:49:26.509Z,102586.63
2023-02-13T10:52:23.228Z,102573.59
2023-02-13T10:54:55.966Z,102569.78
2023-02-13T10:57:36.556Z,102563.97
2023-02-13T11:00:16.280Z,102567.94
2023-02-13T11:02:43.181Z,102561.06
2023-02-13T11:05:21.506Z,102556.34
2023-02-13T11:07:49.804Z,102562.25
2023-02-13T11:10:22.720Z,102558.63
2023-02-13T11:12:50.341Z,102554.50
2023-02-13T11:15:56.640Z,102555.22
2023-02-13T11:18:27.080Z,102548.19
2023-02-13T11:21:10.811Z,102553.69
2023-02-13T11:23:42.768Z,102545.84
2023-02-13T11:26:14.810Z,102538.34
2023-02-13T11:28:58.180Z,102533.19
2023-02-13T11:31:27.049Z,102531.25
2023-02-13T11:33:54.379Z,102530.88
2023-02-13T11:36:33.771Z,102519.94
2023-02-13T11:39:07.415Z,102519.56
2023-02-13T11:41:42.673Z,102510.56
2023-02-13T11:44:31.658Z,102511.84
2023-02-13T11:47:01.351Z,102517.66
2023-02-13T11:49:30.503Z,102516.81
2023-02-13T11:52:00.783Z,102507.09
2023-02-13T11:54:30.966Z,102512.53
2023-02-13T11:57:06.323Z,102512.53
2023-02-13T11:59:40.875Z,102498.34
2023-02-13T12:02:20.218Z,102492.59
2023-02-13T12:05:08.359Z,102503.03
2023-02-13T12:07:35.198Z,102497.06
2023-02-13T12:10:25.342Z,102493.09
2023-02-13T12:13:25.535Z,102488.94
2023-02-13T12:16:01.016Z,102494.69
2023-02-13T12:18:37.466Z,102484.56
2023-02-13T12:21:43.136Z,102483.53
2023-02-13T12:24:13.126Z,102488.56
2023-02-13T12:27:14.748Z,102488.56
2023-02-13T12:30:05.901Z,102468.75
2023-02-13T12:32:57.024Z,102473.16
2023-02-13T12:35:47.029Z,102454.78
2023-02-13T12:38:26.003Z,102464.78
2023-02-13T12:41:20.197Z,102470.47
2023-02-13T12:44:04.535Z,102460.72
2023-02-13T12:46:56.826Z,102462.81
2023-02-13T12:49:26.453Z,102458.00
2023-02-13T12:52:02.412Z,102473.81
2023-02-13T12:54:37.499Z,102463.44
2023-02-13T12:57:42.241Z,102465.63
2023-02-13T13:00:26.821Z,102463.47
2023-02-13T13:03:22.675Z,102448.78
2023-02-13T13:06:28.039Z,102456.09
2023-02-13T13:09:25.881Z,102452.75
2023-02-13T13:12:13.971Z,102454.34
2023-02-13T13:14:57.115Z,102452.50
2023-02-13T13:17:42.806Z,102448.69
2023-02-13T13:20:49.160Z,102449.44
2023-02-13T13:23:20.627Z,102446.94
2023-02-13T13:25:47.482Z,102440.03
2023-02-13T13:28:24.923Z,102449.44
2023-02-13T13:30:53.812Z,102447.41
2023-02-13T13:33:26.266Z,102427.28
2023-02-13T13:36:05.809Z,102442.34
2023-02-13T13:38:38.517Z,102433.81
2023-02-13T13:41:18.167Z,102421.78
2023-02-13T13:44:18.636Z,102433.72
2023-02-13T13:46:53.313Z,102418.03
2023-02-13T13:49:38.141Z,102409.53
2023-02-13T13:52:23.462Z,102413.03
2023-02-13T13:54:53.749Z,102402.19
2023-02-13T13:57:40.874Z,102401.53
2023-02-13T14:00:13.573Z,102407.53
2023-02-13T14:02:48.518Z,102396.22
2023-02-13T14:05:33.451Z,102389.97
2023-02-13T14:08:20.156Z,102403.59
2023-02-13T14:10:49.968Z,102388.41
2023-02-13T14:13:36.135Z,102392.00
2023-02-13T14:16:04.947Z,102386.34
2023-02-13T14:18:32.535Z,102382.38
2023-02-13T14:21:01.917Z,102384.84
2023-02-13T14:23:50.767Z,102381.34
2023-02-13T14:26:17.632Z,102386.72
2023-02-13T14:28:58.693Z,102392.69
2023-02-13T14:31:40.696Z,102382.56
2023-02-13T14:34:17.145Z,102384.47
2023-02-13T14:36:49.064Z,102365.72
2023-02-13T14:39:36.440Z,102372.75
2023-02-13T14:42:21.773Z,102372.44
2023-02-13T14:44:57.206Z,102364.94
2023-02-13T14:47:30.500Z,102361.06
2023-02-13T14:49:59.527Z,102358.44
2023-02-13T14:52:33.145Z,102348.13
2023-02-13T14:55:04.460Z,102349.66
2023-02-13T14:57:37.979Z,102341.59
2023-02-13T15:00:17.491Z,102346.19
2023-02-13T15:02:53.294Z,102351.69
2023-02-13T15:05:21.886Z,102353.97
2023-02-13T15:08:17.207Z,102343.13
2023-02-13T15:10:53.453Z,102348.41
2023-02-13T15:13:35.236Z,102330.94
2023-02-13T15:16:02.515Z,102343.50
2023-02-13T15:30:01.721Z,102342.81
2023-02-13T15:32:34.915Z,102342.78
2023-02-13T15:35:01.915Z,102338.63
2023-02-13T15:37:30.824Z,102354.88
2023-02-13T15:40:17.780Z,102350.03
2023-02-13T15:42:45.001Z,102353.25
2023-02-13T15:45:18.008Z,102350.72
2023-02-13T15:47:46.885Z,102348.69
2023-02-13T15:50:31.054Z,102355.38
2023-02-13T15:53:00.044Z,102352.72
2023-02-13T15:55:29.171Z,102345.81
2023-02-13T15:57:59.141Z,102358.25
2023-02-13T16:00:30.808Z,102358.25
2023-02-13T16:02:59.342Z,102349.69
2023-02-13T16:05:39.367Z,102360.91
2023-02-13T16:08:40.709Z,102359.41
2023-02-13T16:11:24.108Z,102352.09
2023-02-13T16:14:20.993Z,102347.97
2023-02-13T16:17:05.991Z,102350.59
2023-02-13T16:19:37.174Z,102346.91
2023-02-13T16:22:27.307Z,102354.25
2023-02-13T16:25:04.168Z,102352.25
2023-02-13T16:27:31.359Z,102343.88
2023-02-13T16:30:01.038Z,102353.25
2023-02-13T16:32:41.719Z,102349.91
2023-02-13T16:35:30.789Z,102344.16
2023-02-13T16:38:02.348Z,102345.81
2023-02-13T16:40:42.820Z,102350.59
2023-02-13T16:43:34.235Z,102344.34
2023-02-13T16:46:19.381Z,102339.97
2023-02-13T16:49:01.341Z,102337.13
2023-02-13T16:51:42.752Z,102336.69
2023-02-13T16:54:16.001Z,102351.69
2023-02-13T16:56:54.048Z,102339.09
2023-02-13T16:59:43.886Z,102337.22
2023-02-13T17:02:25.202Z,102336.88
2023-02-13T17:05:20.793Z,102344.38
2023-02-13T17:07:53.308Z,102335.00
2023-02-13T17:10:35.402Z,102335.88
2023-02-13T17:13:19.439Z,102333.50
2023-02-13T17:15:48.026Z,102321.00
2023-02-13T17:18:14.972Z,102330.28
2023-02-13T17:20:44.156Z,102323.03
2023-02-13T17:23:22.388Z,102310.47
2023-02-13T17:25:52.006Z,102313.06
2023-02-13T17:28:21.228Z,102314.25
2023-02-13T17:30:51.176Z,102304.19
2023-02-13T17:33:22.229Z,102302.66
2023-02-13T17:35:49.683Z,102299.28
2023-02-13T17:38:16.849Z,102295.03
2023-02-13T17:40:44.852Z,102296.13
2023-02-13T17:43:13.825Z,102296.91
2023-02-13T17:45:40.903Z,102287.16
2023-02-13T17:48:08.174Z,102285.81
2023-02-13T17:50:35.625Z,102294.59
2023-02-13T17:53:05.867Z,102286.69
2023-02-13T17:55:34.514Z,102280.41
2023-02-13T17:58:02.234Z,102287.53
2023-02-13T18:00:32.018Z,102282.25
2023-02-13T18:03:00.710Z,102283.78
2023-02-13T18:05:28.338Z,102288.59
2023-02-13T18:07:55.758Z,102283.53
2023-02-13T18:10:26.057Z,102279.47
2023-02-13T18:12:54.519Z,102279.59
2023-02-13T18:15:21.446Z,102272.47
2023-02-13T18:17:48.371Z,102273.31
2023-02-13T18:20:18.263Z,102278.78
2023-02-13T18:22:45.413Z,102269.75
2023-02-13T18:25:13.436Z,102266.78
2023-02-13T18:27:40.522Z,102271.91
2023-02-13T18:30:08.671Z,102265.44
2023-02-13T18:32:35.812Z,102259.94
2023-02-13T18:35:02.841Z,102259.72
2023-02-13T18:37:30.210Z,102255.31
2023-02-13T18:39:57.093Z,102261.13
2023-02-13T18:42:24.003Z,102256.00
2023-02-13T18:44:51.017Z,102254.34
2023-02-13T18:47:18.206Z,102255.53
2023-02-13T18:49:47.919Z,102243.50
2023-02-13T18:52:15.352Z,102248.50
2023-02-13T18:54:42.152Z,102251.47
2023-02-13T18:57:09.395Z,102256.91
2023-02-13T18:59:36.241Z,102254.84
2023-02-13T19:02:04.381Z,102254.22
2023-02-13T19:04:31.730Z,102256.09
2023-02-13T19:06:58.663Z,102255.94
2023-02-13T19:09:25.456Z,102242.16
2023-02-13T19:11:52.537Z,102241.31
2023-02-13T19:14:19.847Z,102234.84
2023-02-13T19:16:46.939Z,102241.72
2023-02-13T19:19:16.980Z,102233.56
2023-02-13T19:21:44.032Z,102233.41
2023-02-13T19:24:15.465Z,102245.03
2023-02-13T19:26:42.675Z,102241.28
2023-02-13T19:29:09.605Z,102242.16
2023-02-13T19:31:36.632Z,102243.56
2023-02-13T19:34:05.885Z,102244.63
2023-02-13T19:36:33.183Z,102242.78
2023-02-13T19:39:05.393Z,102241.94
2023-02-13T19:41:33.162Z,102230.25
2023-02-13T19:44:01.192Z,102223.19
2023-02-13T19:46:30.473Z,102231.53
2023-02-13T19:48:58.059Z,102223.38
2023-02-13T19:51:27.864Z,102226.31
2023-02-13T19:54:01.227Z,102219.00
2023-02-13T19:56:29.646Z,102224.81
2023-02-13T19:58:56.953Z,102217.50
2023-02-13T20:01:25.695Z,102211.84
2023-02-13T20:03:53.739Z,102199.75
2023-02-13T20:06:27.947Z,102197.66
2023-02-13T20:08:58.298Z,102197.63
2023-02-13T20:11:25.585Z,102196.00
2023-02-13T20:13:57.596Z,102197.69
2023-02-13T20:16:24.528Z,102196.88
2023-02-13T20:18:51.554Z,102201.50
2023-02-13T20:21:19.461Z,102194.63
2023-02-13T20:23:51.809Z,102195.66
2023-02-13T20:26:19.537Z,102189.59
2023-02-13T20:28:48.100Z,102188.56
2023-02-13T20:31:20.961Z,102180.38
2023-02-13T20:33:49.719Z,102183.50
2023-02-13T20:36:22.328Z,102177.88
2023-02-13T20:38:50.700Z,102177.84
2023-02-13T20:41:19.825Z,102166.53
2023-02-13T20:43:47.217Z,102161.56
2023-02-13T20:46:18.083Z,102158.63
2023-02-13T20:48:47.447Z,102158.78
2023-02-13T20:51:16.931Z,102157.38
2023-02-13T20:53:45.153Z,102153.81
2023-02-13T20:56:12.053Z,102156.28
2023-02-13T20:58:41.337Z,102149.88
2023-02-13T21:01:30.030Z,102150.28
2023-02-13T21:03:57.497Z,102148.34
2023-02-13T21:06:35.991Z,102144.41
2023-02-13T21:09:05.591Z,102144.78
2023-02-13T21:11:34.473Z,102146.03
2023-02-13T21:14:02.428Z,102139.53
2023-02-13T21:16:35.467Z,102147.69
2023-02-13T21:19:06.436Z,102140.94
2023-02-13T21:21:34.591Z,102134.31
2023-02-13T21:24:08.091Z,102133.22
2023-02-13T21:26:36.077Z,102124.44
2023-02-13T21:29:04.138Z,102127.41
2023-02-13T21:31:37.162Z,102122.75
2023-02-13T21:34:06.586Z,102124.19
2023-02-13T21:36:35.431Z,102116.88
2023-02-13T21:39:03.589Z,102119.97
2023-02-13T21:41:30.512Z,102116.94
2023-02-13T21:43:57.507Z,102129.75
2023-02-13T21:46:30.196Z,102127.41
2023-02-13T21:48:59.801Z,102121.13
2023-02-13T21:51:28.517Z,102117.81
2023-02-13T21:53:56.071Z,102121.56
2023-02-13T21:56:25.732Z,102111.84
2023-02-13T21:58:53.267Z,102120.63
2023-02-13T22:01:26.416Z,102114.13
2023-02-13T22:03:57.297Z,102127.97
2023-02-13T22:06:25.624Z,102121.91
2023-02-13T22:09:01.320Z,102124.59
2023-02-13T22:11:28.960Z,102121.91
2023-02-13T22:13:57.751Z,102111.69
2023-02-13T22:16:25.081Z,102122.16
2023-02-13T22:18:52.055Z,102124.44
2023-02-13T22:21:21.700Z,102128.56
2023-02-13T22:23:51.353Z,102122.28
2023-02-13T22:26:38.964Z,102125.81
2023-02-13T22:29:09.475Z,102117.03
2023-02-13T22:31:36.643Z,102124.53
2023-02-13T22:34:05.549Z,102119.84
2023-02-13T22:36:40.334Z,102114.75
2023-02-13T22:39:09.545Z,102116.63
2023-02-13T22:41:36.754Z,102121.34
2023-02-13T22:44:04.115Z,102117.59
2023-02-13T22:46:33.107Z,102113.25
2023-02-13T22:49:00.296Z,102108.94
2023-02-13T22:51:32.812Z,102108.31
2023-02-13T22:54:00.221Z,102099.97
2023-02-13T22:56:29.187Z,102109.53
2023-02-13T22:58:56.964Z,102095.56
2023-02-13T23:01:26.216Z,102097.06
2023-02-13T23:03:53.509Z,102097.91
2023-02-13T23:06:21.939Z,102090.19
2023-02-13T23:08:52.580Z,102092.84
2023-02-13T23:11:40.220Z,102098.19
2023-02-13T23:14:07.397Z,102094.22
2023-02-13T23:16:54.362Z,102101.41
2023-02-13T23:19:21.947Z,102103.47
2023-02-13T23:21:49.265Z,102112.16
2023-02-13T23:24:16.482Z,102117.03
2023-02-13T23:26:43.554Z,102108.66
2023-02-13T23:29:10.510Z,102113.31
2023-02-13T23:31:37.931Z,102118.34
2023-02-13T23:34:04.785Z,102111.81
2023-02-13T23:36:31.630Z,102110.97
2023-02-13T23:38:58.542Z,102113.09
2023-02-13T23:41:25.359Z,102112.81
2023-02-13T23:43:52.284Z,102120.81
2023-02-13T23:46:19.197Z,102114.97
2023-02-13T23:48:46.484Z,102108.22
2023-02-13T23:51:13.578Z,102111.44
2023-02-13T23:53:40.555Z,102109.16
2023-02-13T23:56:07.978Z,102127.66
2023-02-13T23:58:35.088Z,102114.97
